Time;durP1;ratioP1;P1;durP2;ratioP2;P2;SDS_P1;SDS_P2;PMS_P1;PMS_P2;Temp;Humidity;BMP_temperature;BMP_pressure;BME280_temperature;BME280_humidity;BME280_pressure;Samples;Min_cycle;Max_cycle;Signal;HPM_P1;HPM_P2
2023/03/31 00:02:14;;;;;;;;;;;;;;;;;;5136932;27;20010;-69
2023/03/31 00:04:44;;;;;;;;;;;;;;;;;;5136692;27;19941;-68
2023/03/31 00:07:10;;;;;;;;;;;;;;;;;;5117731;27;19919;-69
2023/03/31 00:09:36;;;;;;;;;;;;;;;;;;5136797;27;20374;-69
2023/03/31 00:12:02;;;;;;;;;;;;;;;;;;5136897;27;19914;-69
2023/03/31 00:14:28;;;;;;;;;;;;;;;;;;5136321;27;20283;-69
2023/03/31 00:16:55;;;;;;;;;;;;;;;;;;5136675;27;19964;-69
2023/03/31 00:19:21;;;;;;;;;;;;;;;;;;5136593;27;19911;-69
2023/03/31 00:21:47;;;;;;;;;;;;;;;;;;5136070;27;20386;-69
2023/03/31 00:24:13;;;;;;;;;;;;;;;;;;5136520;27;20521;-69
2023/03/31 00:26:39;;;;;;;;;;;;;;;;;;5136682;27;20279;-69
2023/03/31 00:29:05;;;;;;;;;;;;;;;;;;5136018;27;20371;-69
2023/03/31 00:31:31;;;;;;;;;;;;;;;;;;5136427;27;19914;-69
2023/03/31 00:33:57;;;;;;;;;;;;;;;;;;5136301;27;19908;-69
2023/03/31 00:36:26;;;;;;;;;;;;;;;;;;5135879;27;20048;-69
2023/03/31 00:38:52;;;;;;;;;;;;;;;;;;5136079;27;19994;-69
2023/03/31 00:41:18;;;;;;;;;;;;;;;;;;5136171;27;19946;-69
2023/03/31 00:43:44;;;;;;;;;;;;;;;;;;5117343;27;19922;-69
2023/03/31 00:46:14;;;;;;;;;;;;;;;;;;5117648;27;20028;-69
2023/03/31 00:48:40;;;;;;;;;;;;;;;;;;5135973;27;20011;-69
2023/03/31 00:51:06;;;;;;;;;;;;;;;;;;5136056;27;19912;-68
2023/03/31 00:53:32;;;;;;;;;;;;;;;;;;5135898;27;19907;-68
2023/03/31 00:55:58;;;;;;;;;;;;;;;;;;5135892;27;19933;-68
2023/03/31 00:58:27;;;;;;;;;;;;;;;;;;5135807;27;20314;-68
2023/03/31 01:00:52;;;;;;;;;;;;;;;;;;5135782;27;19947;-68
2023/03/31 01:03:21;;;;;;;;;;;;;;;;;;5116865;27;19914;-68
2023/03/31 01:05:48;;;;;;;;;;;;;;;;;;5135713;27;19953;-68
2023/03/31 01:08:14;;;;;;;;;;;;;;;;;;5135333;27;19930;-68
2023/03/31 01:10:40;;;;;;;;;;;;;;;;;;5135158;27;19907;-68
2023/03/31 01:13:06;;;;;;;;;;;;;;;;;;5135540;27;19907;-69
2023/03/31 01:15:32;;;;;;;;;;;;;;;;;;5135531;27;20360;-68
2023/03/31 01:17:59;;;;;;;;;;;;;;;;;;5134778;27;20317;-68
2023/03/31 01:20:25;;;;;;;;;;;;;;;;;;5116985;27;19908;-68
2023/03/31 01:22:51;;;;;;;;;;;;;;;;;;5135366;27;20264;-68
2023/03/31 01:25:17;;;;;;;;;;;;;;;;;;5135084;27;19914;-68
2023/03/31 01:27:43;;;;;;;;;;;;;;;;;;5135217;27;19915;-68
2023/03/31 01:30:09;;;;;;;;;;;;;;;;;;5135272;27;19943;-68
2023/03/31 01:32:35;;;;;;;;;;;;;;;;;;5134746;27;20381;-68
2023/03/31 01:35:01;;;;;;;;;;;;;;;;;;5116721;27;19908;-68
2023/03/31 01:37:27;;;;;;;;;;;;;;;;;;5135210;27;19908;-68
2023/03/31 01:39:53;;;;;;;;;;;;;;;;;;5116234;27;19919;-68
2023/03/31 01:42:19;;;;;;;;;;;;;;;;;;5135036;27;19914;-68
2023/03/31 01:44:45;;;;;;;;;;;;;;;;;;5135109;27;19911;-68
2023/03/31 01:47:11;;;;;;;;;;;;;;;;;;5116059;27;20436;-68
2023/03/31 01:49:37;;;;;;;;;;;;;;;;;;5116492;27;19912;-68
2023/03/31 01:52:03;;;;;;;;;;;;;;;;;;5134564;27;19914;-68
2023/03/31 01:54:29;;;;;;;;;;;;;;;;;;5134847;27;19908;-68
2023/03/31 01:56:55;;;;;;;;;;;;;;;;;;5134927;27;19935;-68
2023/03/31 01:59:21;;;;;;;;;;;;;;;;;;5134828;27;20076;-69
2023/03/31 02:01:47;;;;;;;;;;;;;;;;;;5116404;28;19950;-68
2023/03/31 02:04:13;;;;;;;;;;;;;;;;;;5134779;27;19908;-68
2023/03/31 02:06:39;;;;;;;;;;;;;;;;;;5134293;28;20379;-68
2023/03/31 02:09:05;;;;;;;;;;;;;;;;;;5134880;28;19911;-68
2023/03/31 02:11:31;;;;;;;;;;;;;;;;;;5116315;28;19977;-68
2023/03/31 02:13:57;;;;;;;;;;;;;;;;;;5134298;28;19912;-68
2023/03/31 02:16:23;;;;;;;;;;;;;;;;;;5116281;28;19907;-68
2023/03/31 02:18:49;;;;;;;;;;;;;;;;;;5116175;28;19914;-68
2023/03/31 02:21:15;;;;;;;;;;;;;;;;;;5134335;28;19911;-68
2023/03/31 02:23:41;;;;;;;;;;;;;;;;;;5134628;28;19907;-68
2023/03/31 02:26:07;;;;;;;;;;;;;;;;;;5116632;28;19969;-68
2023/03/31 02:28:33;;;;;;;;;;;;;;;;;;5116564;27;19965;-69
2023/03/31 02:30:59;;;;;;;;;;;;;;;;;;5138748;27;19908;-67
2023/03/31 02:33:25;;;;;;;;;;;;;;;;;;5138574;27;20366;-69
2023/03/31 02:35:50;;;;;;;;;;;;;;;;;;5138274;27;19907;-69
2023/03/31 02:38:16;;;;;;;;;;;;;;;;;;5138490;27;19907;-69
2023/03/31 02:40:42;;;;;;;;;;;;;;;;;;5138557;27;19939;-69
2023/03/31 02:43:08;;;;;;;;;;;;;;;;;;5138006;27;19907;-69
2023/03/31 02:45:34;;;;;;;;;;;;;;;;;;5138497;27;19911;-68
2023/03/31 02:48:00;;;;;;;;;;;;;;;;;;5138393;27;19916;-69
2023/03/31 02:50:26;;;;;;;;;;;;;;;;;;5137967;27;19907;-69
2023/03/31 02:52:52;;;;;;;;;;;;;;;;;;5119891;27;19911;-69
2023/03/31 02:55:18;;;;;;;;;;;;;;;;;;5137953;27;19907;-69
2023/03/31 02:57:45;;;;;;;;;;;;;;;;;;5119805;27;19912;-69
2023/03/31 03:00:12;;;;;;;;;;;;;;;;;;5138286;27;19952;-69
2023/03/31 03:02:38;;;;;;;;;;;;;;;;;;5137721;27;19911;-69
2023/03/31 03:05:04;;;;;;;;;;;;;;;;;;5119693;27;20403;-69
2023/03/31 03:07:30;;;;;;;;;;;;;;;;;;5137874;27;19926;-69
2023/03/31 03:09:56;;;;;;;;;;;;;;;;;;5137574;27;20002;-69
2023/03/31 03:12:22;;;;;;;;;;;;;;;;;;5137946;27;19915;-69
2023/03/31 03:14:48;;;;;;;;;;;;;;;;;;5119469;27;19943;-69
2023/03/31 03:17:14;;;;;;;;;;;;;;;;;;5137844;27;19929;-69
2023/03/31 03:19:41;;;;;;;;;;;;;;;;;;5137710;27;19908;-68
2023/03/31 03:22:07;;;;;;;;;;;;;;;;;;5119369;27;19908;-69
2023/03/31 03:24:33;;;;;;;;;;;;;;;;;;5137348;27;20268;-69
2023/03/31 03:26:59;;;;;;;;;;;;;;;;;;5137566;27;19919;-67
2023/03/31 03:29:26;;;;;;;;;;;;;;;;;;5137811;27;19966;-69
2023/03/31 03:31:51;;;;;;;;;;;;;;;;;;5137364;27;20041;-69
2023/03/31 03:34:18;;;;;;;;;;;;;;;;;;5137488;27;19957;-69
2023/03/31 03:36:44;;;;;;;;;;;;;;;;;;5137469;27;19911;-69
2023/03/31 03:39:11;;;;;;;;;;;;;;;;;;5136655;27;19908;-69
2023/03/31 03:41:37;;;;;;;;;;;;;;;;;;5118926;27;19960;-69
2023/03/31 03:44:03;;;;;;;;;;;;;;;;;;5137363;27;20321;-69
2023/03/31 03:46:28;;;;;;;;;;;;;;;;;;5136915;27;20309;-69
2023/03/31 03:48:55;;;;;;;;;;;;;;;;;;5137214;27;19916;-67
2023/03/31 03:51:21;;;;;;;;;;;;;;;;;;5137322;27;19942;-70
2023/03/31 03:53:46;;;;;;;;;;;;;;;;;;5136702;27;19908;-70
2023/03/31 03:56:12;;;;;;;;;;;;;;;;;;5118663;27;19908;-69
2023/03/31 03:58:38;;;;;;;;;;;;;;;;;;5136667;27;19930;-70
2023/03/31 04:01:04;;;;;;;;;;;;;;;;;;5137083;27;19911;-69
2023/03/31 04:03:31;;;;;;;;;;;;;;;;;;5118491;27;19908;-69
2023/03/31 04:14:11;;;;;;;;;;;;;;;;;;4639287;27;20010;-68
2023/03/31 04:16:37;;;;;;;;;;;;;;;;;;5118344;27;20002;-70
2023/03/31 04:19:03;;;;;;;;;;;;;;;;;;5118183;27;19907;-68
2023/03/31 04:21:33;;;;;;;;;;;;;;;;;;5136314;27;19930;-69
2023/03/31 04:24:00;;;;;;;;;;;;;;;;;;5136498;27;19907;-69
2023/03/31 04:26:29;;;;;;;;;;;;;;;;;;5118078;27;19911;-68
2023/03/31 04:28:57;;;;;;;;;;;;;;;;;;5117606;27;20391;-68
2023/03/31 04:31:29;;;;;;;;;;;;;;;;;;5136401;27;20385;-68
2023/03/31 04:33:59;;;;;;;;;;;;;;;;;;5135933;27;19912;-68
2023/03/31 04:36:27;;;;;;;;;;;;;;;;;;5136442;27;19907;-68
2023/03/31 04:38:53;;;;;;;;;;;;;;;;;;5136163;27;20002;-68
2023/03/31 04:41:19;;;;;;;;;;;;;;;;;;5135730;27;20354;-68
2023/03/31 04:43:45;;;;;;;;;;;;;;;;;;5136439;27;19908;-67
2023/03/31 04:46:11;;;;;;;;;;;;;;;;;;5136086;27;20371;-68
2023/03/31 04:48:37;;;;;;;;;;;;;;;;;;5134557;27;20116;-68
2023/03/31 04:51:03;;;;;;;;;;;;;;;;;;5134388;27;20313;-68
2023/03/31 04:53:29;;;;;;;;;;;;;;;;;;5134942;27;19961;-68
2023/03/31 04:55:55;;;;;;;;;;;;;;;;;;5135417;27;19957;-68
2023/03/31 04:58:21;;;;;;;;;;;;;;;;;;5134261;27;19912;-68
2023/03/31 05:00:47;;;;;;;;;;;;;;;;;;5135643;27;19907;-68
2023/03/31 05:03:13;;;;;;;;;;;;;;;;;;5135255;27;19907;-68
2023/03/31 05:05:39;;;;;;;;;;;;;;;;;;5134017;27;19907;-68
2023/03/31 05:08:05;;;;;;;;;;;;;;;;;;5133786;27;19920;-68
2023/03/31 05:10:31;;;;;;;;;;;;;;;;;;5133320;27;19907;-68
2023/03/31 05:12:56;;;;;;;;;;;;;;;;;;5133309;27;19958;-68
2023/03/31 05:15:25;;;;;;;;;;;;;;;;;;5115826;27;19983;-68
2023/03/31 05:17:51;;;;;;;;;;;;;;;;;;5134524;27;19908;-68
2023/03/31 05:20:18;;;;;;;;;;;;;;;;;;5134937;27;19907;-68
2023/03/31 05:22:44;;;;;;;;;;;;;;;;;;5120339;27;19911;-67
2023/03/31 05:25:10;;;;;;;;;;;;;;;;;;5126942;27;19916;-69
2023/03/31 05:27:36;;;;;;;;;;;;;;;;;;5132572;27;19966;-70
2023/03/31 05:30:03;;;;;;;;;;;;;;;;;;5120288;27;19915;-70
2023/03/31 05:32:29;;;;;;;;;;;;;;;;;;5112526;27;19907;-69
2023/03/31 05:34:56;;;;;;;;;;;;;;;;;;5105442;27;19916;-69
2023/03/31 05:37:23;;;;;;;;;;;;;;;;;;5124110;27;19920;-68
2023/03/31 05:39:49;;;;;;;;;;;;;;;;;;5118906;27;20372;-68
2023/03/31 05:42:15;;;;;;;;;;;;;;;;;;5130683;27;19926;-69
2023/03/31 05:44:40;;;;;;;;;;;;;;;;;;5132944;27;19914;-68
2023/03/31 05:47:06;;;;;;;;;;;;;;;;;;5114434;27;19998;-68
2023/03/31 05:49:32;;;;;;;;;;;;;;;;;;5114843;27;19912;-68
2023/03/31 05:52:00;;;;;;;;;;;;;;;;;;5116999;27;19950;-68
2023/03/31 05:54:26;;;;;;;;;;;;;;;;;;5128096;27;19962;-68
2023/03/31 05:56:52;;;;;;;;;;;;;;;;;;5134245;27;19907;-69
2023/03/31 05:59:18;;;;;;;;;;;;;;;;;;5131866;27;19914;-70
2023/03/31 06:01:44;;;;;;;;;;;;;;;;;;5113834;28;20006;-70
2023/03/31 06:04:10;;;;;;;;;;;;;;;;;;5114015;27;19912;-69
2023/03/31 06:06:36;;;;;;;;;;;;;;;;;;5126813;27;19965;-70
2023/03/31 06:09:02;;;;;;;;;;;;;;;;;;5119927;28;19926;-69
2023/03/31 06:11:28;;;;;;;;;;;;;;;;;;5120713;28;20019;-69
2023/03/31 06:13:54;;;;;;;;;;;;;;;;;;5105524;28;19923;-69
2023/03/31 06:16:20;;;;;;;;;;;;;;;;;;5089702;28;20002;-69
2023/03/31 06:18:50;;;;;;;;;;;;;;;;;;5111669;28;19994;-69
2023/03/31 06:21:20;;;;;;;;;;;;;;;;;;5092832;28;20329;-68
2023/03/31 06:23:46;;;;;;;;;;;;;;;;;;5098190;28;19919;-68
2023/03/31 06:26:12;;;;;;;;;;;;;;;;;;5109986;28;19912;-70
2023/03/31 06:28:38;;;;;;;;;;;;;;;;;;5118085;28;20052;-71
2023/03/31 06:31:04;;;;;;;;;;;;;;;;;;5115897;28;19919;-71
2023/03/31 06:33:31;;;;;;;;;;;;;;;;;;5121882;28;19919;-72
2023/03/31 06:36:00;;;;;;;;;;;;;;;;;;5128661;28;20284;-71
2023/03/31 06:38:26;;;;;;;;;;;;;;;;;;5121110;28;19915;-71
2023/03/31 06:40:52;;;;;;;;;;;;;;;;;;5115203;28;19915;-71
2023/03/31 06:43:18;;;;;;;;;;;;;;;;;;5107748;28;19912;-71
2023/03/31 06:45:44;;;;;;;;;;;;;;;;;;5109742;28;19915;-73
2023/03/31 06:48:10;;;;;;;;;;;;;;;;;;5110300;28;19924;-72
2023/03/31 06:50:36;;;;;;;;;;;;;;;;;;5111913;28;19914;-71
2023/03/31 06:53:02;;;;;;;;;;;;;;;;;;5110318;28;19919;-69
2023/03/31 06:55:28;;;;;;;;;;;;;;;;;;5109882;28;19908;-68
2023/03/31 06:57:54;;;;;;;;;;;;;;;;;;5109074;28;19912;-74
2023/03/31 07:00:20;;;;;;;;;;;;;;;;;;5110731;28;20332;-71
2023/03/31 07:02:46;;;;;;;;;;;;;;;;;;5098607;28;19912;-73
2023/03/31 07:05:12;;;;;;;;;;;;;;;;;;5113421;28;20395;-71
2023/03/31 07:07:38;;;;;;;;;;;;;;;;;;5124207;28;19916;-72
2023/03/31 07:10:04;;;;;;;;;;;;;;;;;;5117680;28;19908;-73
2023/03/31 07:12:30;;;;;;;;;;;;;;;;;;5100987;28;19976;-71
2023/03/31 07:14:56;;;;;;;;;;;;;;;;;;5122468;27;20352;-71
2023/03/31 07:17:24;;;;;;;;;;;;;;;;;;5120466;27;19922;-70
2023/03/31 07:19:53;;;;;;;;;;;;;;;;;;5121286;27;19916;-71
2023/03/31 07:22:18;;;;;;;;;;;;;;;;;;5111209;27;20326;-71
2023/03/31 07:24:44;;;;;;;;;;;;;;;;;;5105012;27;19915;-72
2023/03/31 07:27:10;;;;;;;;;;;;;;;;;;5116221;27;20233;-70
2023/03/31 07:29:36;;;;;;;;;;;;;;;;;;5119051;27;19916;-72
2023/03/31 07:32:02;;;;;;;;;;;;;;;;;;5126357;27;19912;-70
2023/03/31 07:34:28;;;;;;;;;;;;;;;;;;5097848;27;19915;-72
2023/03/31 07:36:54;;;;;;;;;;;;;;;;;;5100508;28;19916;-70
2023/03/31 07:39:20;;;;;;;;;;;;;;;;;;5112863;28;19922;-71
2023/03/31 07:41:46;;;;;;;;;;;;;;;;;;5115514;27;20510;-70
2023/03/31 07:44:16;;;;;;;;;;;;;;;;;;5117228;27;20007;-72
2023/03/31 07:46:42;;;;;;;;;;;;;;;;;;5111667;27;19918;-70
2023/03/31 07:49:09;;;;;;;;;;;;;;;;;;5119276;27;19924;-71
2023/03/31 07:51:36;;;;;;;;;;;;;;;;;;5115874;27;19919;-71
2023/03/31 07:54:02;;;;;;;;;;;;;;;;;;5091156;27;19918;-71
2023/03/31 07:56:30;;;;;;;;;;;;;;;;;;5113033;28;19912;-71
2023/03/31 07:58:56;;;;;;;;;;;;;;;;;;5102419;27;19916;-71
2023/03/31 08:01:24;;;;;;;;;;;;;;;;;;5105635;27;19908;-71
2023/03/31 08:03:54;;;;;;;;;;;;;;;;;;5107025;27;20328;-72
2023/03/31 08:07:52;;;;;;;;;;;;;;;;;;5141549;27;19923;-70
2023/03/31 08:10:18;;;;;;;;;;;;;;;;;;5102392;28;19916;-72
2023/03/31 08:14:22;;;;;;;;;;;;;;;;;;5104294;27;19916;-70
2023/03/31 08:21:08;;;;;;;;;;;;;;;;;;4957456;27;5633661;-71
2023/03/31 08:23:34;;;;;;;;;;;;;;;;;;5120480;27;20420;-71
2023/03/31 08:26:02;;;;;;;;;;;;;;;;;;5137528;27;20326;-71
2023/03/31 08:28:28;;;;;;;;;;;;;;;;;;5131652;27;19916;-71
2023/03/31 08:30:55;;;;;;;;;;;;;;;;;;5127288;27;19933;-71
2023/03/31 08:33:21;;;;;;;;;;;;;;;;;;5146935;27;20393;-71
2023/03/31 08:35:50;;;;;;;;;;;;;;;;;;5129491;27;20383;-71
2023/03/31 08:39:06;;;;;;;;;;;;;;;;;;5078427;27;19923;-70
2023/03/31 08:41:32;;;;;;;;;;;;;;;;;;5077863;28;20327;-71
2023/03/31 08:43:58;;;;;;;;;;;;;;;;;;5070283;28;19912;-71
2023/03/31 08:46:24;;;;;;;;;;;;;;;;;;5066893;28;20337;-80
2023/03/31 08:48:50;;;;;;;;;;;;;;;;;;5066019;28;20405;-72
2023/03/31 08:51:16;;;;;;;;;;;;;;;;;;5065622;28;19909;-73
2023/03/31 08:53:42;;;;;;;;;;;;;;;;;;5066213;28;19909;-72
2023/03/31 08:56:08;;;;;;;;;;;;;;;;;;5064789;28;19955;-72
2023/03/31 08:58:35;;;;;;;;;;;;;;;;;;5064024;28;20304;-73
2023/03/31 09:01:01;;;;;;;;;;;;;;;;;;5066238;28;20007;-72
2023/03/31 09:03:26;;;;;;;;;;;;;;;;;;5071350;28;20050;-73
2023/03/31 09:09:12;;;;;;;;;;;;;;;;;;5129011;27;19917;-70
2023/03/31 09:13:27;;;;;;;;;;;;;;;;;;5089168;27;19920;-70
2023/03/31 09:17:51;;;;;;;;;;;;;;;;;;5105243;27;19916;-69
2023/03/31 09:22:25;;;;;;;;;;;;;;;;;;5170063;27;20010;-70
2023/03/31 09:25:00;;;;;;;;;;;;;;;;;;5150209;27;19936;-71
2023/03/31 09:27:26;;;;;;;;;;;;;;;;;;5156363;27;20010;-72
2023/03/31 09:29:55;;;;;;;;;;;;;;;;;;5127911;27;19912;-71
2023/03/31 09:32:22;;;;;;;;;;;;;;;;;;5156242;27;20439;-70
2023/03/31 09:36:39;;;;;;;;;;;;;;;;;;5108362;27;19922;-70
2023/03/31 09:39:05;;;;;;;;;;;;;;;;;;5105148;28;20020;-71
2023/03/31 09:41:31;;;;;;;;;;;;;;;;;;5090912;28;20002;-71
2023/03/31 09:43:59;;;;;;;;;;;;;;;;;;5096280;28;20523;-70
2023/03/31 09:46:25;;;;;;;;;;;;;;;;;;5096150;28;19916;-70
2023/03/31 09:48:51;;;;;;;;;;;;;;;;;;5095708;28;19938;-74
2023/03/31 09:52:28;;;;;;;;;;;;;;;;;;5022951;28;19936;-73
2023/03/31 09:54:54;;;;;;;;;;;;;;;;;;5014968;28;19913;-70
2023/03/31 09:57:47;;;;;;;;;;;;;;;;;;5063906;27;19935;-70
2023/03/31 10:00:14;;;;;;;;;;;;;;;;;;5059667;28;19952;-71
2023/03/31 10:02:40;;;;;;;;;;;;;;;;;;5067423;28;20292;-71
2023/03/31 10:08:52;;;;;;;;;;;;;;;;;;4289920;27;25090598;-70
2023/03/31 10:13:29;;;;;;;;;;;;;;;;;;5149251;27;19912;-71
2023/03/31 10:15:56;;;;;;;;;;;;;;;;;;5126555;27;20379;-71
2023/03/31 10:18:22;;;;;;;;;;;;;;;;;;5143541;27;19914;-71
2023/03/31 10:20:47;;;;;;;;;;;;;;;;;;5131618;27;19915;-72
2023/03/31 10:24:39;;;;;;;;;;;;;;;;;;5103512;27;19916;-71
2023/03/31 10:27:35;;;;;;;;;;;;;;;;;;5080135;28;19923;-72
2023/03/31 10:30:01;;;;;;;;;;;;;;;;;;5085797;28;19913;-71
2023/03/31 10:34:50;;;;;;;;;;;;;;;;;;5087220;27;19919;-67
2023/03/31 10:37:16;;;;;;;;;;;;;;;;;;5085750;28;19919;-68
2023/03/31 10:39:42;;;;;;;;;;;;;;;;;;5086585;28;20319;-68
2023/03/31 10:42:35;;;;;;;;;;;;;;;;;;5171541;27;20025;-67
2023/03/31 10:46:26;;;;;;;;;;;;;;;;;;5086878;27;20242;-68
2023/03/31 10:50:33;;;;;;;;;;;;;;;;;;5087330;27;19916;-69
2023/03/31 10:52:59;;;;;;;;;;;;;;;;;;5086761;28;20331;-68
2023/03/31 10:55:25;;;;;;;;;;;;;;;;;;5087993;28;19916;-68
2023/03/31 10:57:51;;;;;;;;;;;;;;;;;;5089746;28;19958;-67
2023/03/31 11:00:30;;;;;;;;;;;;;;;;;;5110427;27;19916;-68
2023/03/31 11:02:56;;;;;;;;;;;;;;;;;;5110624;28;20006;-69
2023/03/31 11:08:19;;;;;;;;;;;;;;;;;;5090415;27;20281;-67
2023/03/31 11:10:45;;;;;;;;;;;;;;;;;;5090672;28;19963;-69
2023/03/31 11:13:11;;;;;;;;;;;;;;;;;;5090816;28;20410;-71
2023/03/31 11:17:03;;;;;;;;;;;;;;;;;;5090324;27;19916;-68
2023/03/31 11:19:29;;;;;;;;;;;;;;;;;;5090764;28;20011;-71
2023/03/31 11:21:55;;;;;;;;;;;;;;;;;;5090238;28;19915;-69
2023/03/31 11:24:21;;;;;;;;;;;;;;;;;;5090597;28;19908;-70
2023/03/31 11:28:17;;;;;;;;;;;;;;;;;;5110695;27;19920;-69
2023/03/31 11:32:13;;;;;;;;;;;;;;;;;;5109861;27;19916;-69
2023/03/31 11:36:31;;;;;;;;;;;;;;;;;;5150863;27;19911;-69
2023/03/31 11:38:57;;;;;;;;;;;;;;;;;;5151378;27;19911;-71
2023/03/31 11:41:23;;;;;;;;;;;;;;;;;;5151275;27;20285;-70
2023/03/31 11:43:49;;;;;;;;;;;;;;;;;;5151055;27;19915;-70
2023/03/31 11:46:15;;;;;;;;;;;;;;;;;;5152300;27;19952;-70
2023/03/31 11:48:41;;;;;;;;;;;;;;;;;;5152412;27;19911;-70
2023/03/31 11:51:07;;;;;;;;;;;;;;;;;;5144277;27;19907;-70
2023/03/31 11:53:33;;;;;;;;;;;;;;;;;;5131553;28;19976;-70
2023/03/31 11:56:01;;;;;;;;;;;;;;;;;;5131473;28;20018;-71
2023/03/31 11:59:35;;;;;;;;;;;;;;;;;;5152452;27;20422;-69
2023/03/31 12:02:00;;;;;;;;;;;;;;;;;;5152762;27;19946;-70
2023/03/31 12:05:31;;;;;;;;;;;;;;;;;;5172897;27;19915;-71
2023/03/31 12:07:57;;;;;;;;;;;;;;;;;;5173386;27;19911;-69
2023/03/31 12:10:22;;;;;;;;;;;;;;;;;;5171998;27;19929;-69
2023/03/31 12:12:48;;;;;;;;;;;;;;;;;;5173024;27;19907;-70
2023/03/31 12:15:14;;;;;;;;;;;;;;;;;;5172349;27;19914;-70
2023/03/31 12:17:40;;;;;;;;;;;;;;;;;;5171574;27;19946;-70
2023/03/31 12:20:09;;;;;;;;;;;;;;;;;;5172655;27;19950;-70
2023/03/31 12:22:35;;;;;;;;;;;;;;;;;;5172970;27;19954;-69
2023/03/31 12:25:01;;;;;;;;;;;;;;;;;;5172563;27;19962;-70
2023/03/31 12:27:27;;;;;;;;;;;;;;;;;;5153863;27;19946;-71
2023/03/31 12:29:53;;;;;;;;;;;;;;;;;;5170800;27;20304;-71
2023/03/31 12:34:10;;;;;;;;;;;;;;;;;;5089031;27;20292;-70
2023/03/31 12:36:36;;;;;;;;;;;;;;;;;;5090246;28;19912;-70
2023/03/31 12:39:02;;;;;;;;;;;;;;;;;;5090568;28;19912;-71
2023/03/31 12:41:28;;;;;;;;;;;;;;;;;;5090184;28;19909;-71
2023/03/31 12:43:54;;;;;;;;;;;;;;;;;;5090427;28;19909;-71
2023/03/31 12:46:20;;;;;;;;;;;;;;;;;;5088066;28;20028;-69
2023/03/31 12:48:48;;;;;;;;;;;;;;;;;;5089737;28;19912;-71
2023/03/31 12:51:14;;;;;;;;;;;;;;;;;;5090601;28;19908;-72
2023/03/31 12:53:53;;;;;;;;;;;;;;;;;;5090572;27;19923;-70
2023/03/31 12:56:20;;;;;;;;;;;;;;;;;;5090677;28;20351;-71
2023/03/31 12:58:46;;;;;;;;;;;;;;;;;;5090724;28;19916;-70
2023/03/31 13:01:13;;;;;;;;;;;;;;;;;;5090720;28;20387;-69
2023/03/31 13:03:39;;;;;;;;;;;;;;;;;;5091406;28;19940;-69
2023/03/31 13:06:05;;;;;;;;;;;;;;;;;;5091201;28;19909;-69
2023/03/31 13:08:31;;;;;;;;;;;;;;;;;;5090688;28;19908;-69
2023/03/31 13:10:57;;;;;;;;;;;;;;;;;;5090961;28;20272;-68
2023/03/31 13:13:23;;;;;;;;;;;;;;;;;;5089513;28;20268;-68
2023/03/31 13:15:49;;;;;;;;;;;;;;;;;;5090474;28;19966;-68
2023/03/31 13:18:15;;;;;;;;;;;;;;;;;;5090955;28;19908;-68
2023/03/31 13:20:41;;;;;;;;;;;;;;;;;;5090787;28;19931;-68
2023/03/31 13:23:07;;;;;;;;;;;;;;;;;;5090310;28;19915;-68
2023/03/31 13:25:33;;;;;;;;;;;;;;;;;;5090723;28;19912;-68
2023/03/31 13:27:59;;;;;;;;;;;;;;;;;;5090615;28;19995;-68
2023/03/31 13:30:25;;;;;;;;;;;;;;;;;;5090243;28;19913;-68
2023/03/31 13:32:51;;;;;;;;;;;;;;;;;;5090453;28;19916;-68
2023/03/31 13:35:17;;;;;;;;;;;;;;;;;;5090545;28;20014;-68
2023/03/31 13:37:44;;;;;;;;;;;;;;;;;;5090441;28;20003;-68
2023/03/31 13:40:11;;;;;;;;;;;;;;;;;;5090446;28;20284;-68
2023/03/31 13:42:37;;;;;;;;;;;;;;;;;;5090282;28;19915;-68
2023/03/31 13:45:03;;;;;;;;;;;;;;;;;;5090383;28;20372;-68
2023/03/31 13:47:29;;;;;;;;;;;;;;;;;;5090608;28;20365;-68
2023/03/31 13:49:55;;;;;;;;;;;;;;;;;;5090057;28;19908;-68
2023/03/31 13:52:21;;;;;;;;;;;;;;;;;;5090017;28;19927;-68
2023/03/31 13:54:47;;;;;;;;;;;;;;;;;;5090249;28;20284;-68
2023/03/31 13:57:13;;;;;;;;;;;;;;;;;;5089835;28;20269;-68
2023/03/31 13:59:40;;;;;;;;;;;;;;;;;;5090235;28;19987;-68
2023/03/31 14:02:06;;;;;;;;;;;;;;;;;;5090044;28;19909;-68
2023/03/31 14:04:32;;;;;;;;;;;;;;;;;;5079902;28;20253;-68
2023/03/31 14:06:58;;;;;;;;;;;;;;;;;;5076353;28;19909;-68
2023/03/31 14:09:24;;;;;;;;;;;;;;;;;;5076367;28;19909;-68
2023/03/31 14:11:50;;;;;;;;;;;;;;;;;;5075862;28;19962;-68
2023/03/31 14:14:16;;;;;;;;;;;;;;;;;;5076384;28;19974;-68
2023/03/31 14:16:42;;;;;;;;;;;;;;;;;;5076256;28;19908;-68
2023/03/31 14:19:08;;;;;;;;;;;;;;;;;;5075781;28;19908;-68
2023/03/31 14:21:34;;;;;;;;;;;;;;;;;;5076327;28;19944;-68
2023/03/31 14:24:00;;;;;;;;;;;;;;;;;;5076111;28;19908;-68
2023/03/31 14:26:27;;;;;;;;;;;;;;;;;;5075716;28;20265;-69
2023/03/31 14:28:53;;;;;;;;;;;;;;;;;;5076024;28;19912;-69
2023/03/31 14:31:20;;;;;;;;;;;;;;;;;;5075997;28;19939;-69
2023/03/31 14:33:46;;;;;;;;;;;;;;;;;;5075506;28;20364;-68
2023/03/31 14:36:12;;;;;;;;;;;;;;;;;;5075827;28;19915;-68
2023/03/31 14:38:38;;;;;;;;;;;;;;;;;;5074788;28;20003;-68
2023/03/31 14:41:03;;;;;;;;;;;;;;;;;;5074758;28;19908;-68
2023/03/31 14:43:32;;;;;;;;;;;;;;;;;;5074839;28;19909;-68
2023/03/31 14:45:58;;;;;;;;;;;;;;;;;;5074412;28;19916;-68
2023/03/31 14:48:24;;;;;;;;;;;;;;;;;;5074706;28;19916;-68
2023/03/31 14:50:50;;;;;;;;;;;;;;;;;;5074168;28;20372;-68
2023/03/31 14:53:16;;;;;;;;;;;;;;;;;;5072932;28;19927;-68
2023/03/31 14:55:42;;;;;;;;;;;;;;;;;;5073488;28;19991;-68
2023/03/31 14:58:08;;;;;;;;;;;;;;;;;;5074449;28;19909;-68
2023/03/31 15:00:34;;;;;;;;;;;;;;;;;;5074664;28;19915;-68
2023/03/31 15:03:00;;;;;;;;;;;;;;;;;;5075352;28;19930;-68
2023/03/31 15:05:26;;;;;;;;;;;;;;;;;;5075460;28;19908;-68
2023/03/31 15:07:52;;;;;;;;;;;;;;;;;;5074929;28;19948;-67
2023/03/31 15:10:18;;;;;;;;;;;;;;;;;;5075205;28;19916;-68
2023/03/31 15:12:44;;;;;;;;;;;;;;;;;;5074142;28;19916;-68
2023/03/31 15:15:10;;;;;;;;;;;;;;;;;;5073921;28;19955;-68
2023/03/31 15:17:36;;;;;;;;;;;;;;;;;;5073444;28;19909;-68
2023/03/31 15:20:03;;;;;;;;;;;;;;;;;;5075157;28;19908;-68
2023/03/31 15:22:29;;;;;;;;;;;;;;;;;;5074582;28;19949;-68
2023/03/31 15:24:55;;;;;;;;;;;;;;;;;;5074903;28;19909;-69
2023/03/31 15:27:21;;;;;;;;;;;;;;;;;;5074861;28;19909;-69
2023/03/31 15:29:47;;;;;;;;;;;;;;;;;;5074383;28;19909;-69
2023/03/31 15:32:13;;;;;;;;;;;;;;;;;;5074686;28;19920;-69
2023/03/31 15:34:42;;;;;;;;;;;;;;;;;;5074649;28;19962;-68
2023/03/31 15:37:08;;;;;;;;;;;;;;;;;;5074273;28;20395;-69
2023/03/31 15:39:34;;;;;;;;;;;;;;;;;;5074721;28;19909;-69
2023/03/31 15:42:00;;;;;;;;;;;;;;;;;;5074261;28;19958;-68
2023/03/31 15:44:26;;;;;;;;;;;;;;;;;;5074708;28;19908;-68
2023/03/31 15:46:52;;;;;;;;;;;;;;;;;;5074509;28;19908;-69
2023/03/31 15:49:18;;;;;;;;;;;;;;;;;;5074061;28;19913;-69
2023/03/31 15:51:44;;;;;;;;;;;;;;;;;;5074459;28;19915;-69
2023/03/31 15:54:10;;;;;;;;;;;;;;;;;;5074453;28;19913;-69
2023/03/31 15:56:37;;;;;;;;;;;;;;;;;;5073901;28;19916;-69
2023/03/31 15:59:03;;;;;;;;;;;;;;;;;;5074473;28;19917;-67
2023/03/31 16:01:31;;;;;;;;;;;;;;;;;;5074476;28;20002;-69
2023/03/31 16:03:57;;;;;;;;;;;;;;;;;;5073849;28;19909;-69
2023/03/31 16:06:23;;;;;;;;;;;;;;;;;;5074177;28;19912;-68
2023/03/31 16:08:49;;;;;;;;;;;;;;;;;;5074148;28;20292;-69
2023/03/31 16:12:55;;;;;;;;;;;;;;;;;;5092111;27;19923;-68
2023/03/31 16:19:46;;;;;;;;;;;;;;;;;;5091907;28;20288;-69
2023/03/31 16:22:12;;;;;;;;;;;;;;;;;;5091803;28;19912;-69
2023/03/31 16:24:38;;;;;;;;;;;;;;;;;;5090921;28;20331;-69
2023/03/31 16:27:05;;;;;;;;;;;;;;;;;;5090845;28;20280;-68
2023/03/31 16:29:31;;;;;;;;;;;;;;;;;;5091222;28;19971;-69
2023/03/31 16:31:57;;;;;;;;;;;;;;;;;;5090770;28;20364;-69
2023/03/31 16:35:23;;;;;;;;;;;;;;;;;;5091620;27;19912;-69
2023/03/31 16:37:49;;;;;;;;;;;;;;;;;;5091332;28;20011;-69
2023/03/31 16:40:15;;;;;;;;;;;;;;;;;;5090746;28;20368;-69
2023/03/31 16:42:41;;;;;;;;;;;;;;;;;;5090946;28;20341;-68
2023/03/31 16:45:07;;;;;;;;;;;;;;;;;;5090284;28;19954;-70
2023/03/31 16:51:09;;;;;;;;;;;;;;;;;;5069741;28;20633;-68
2023/03/31 16:54:47;;;;;;;;;;;;;;;;;;5091281;27;19917;-68
2023/03/31 16:57:14;;;;;;;;;;;;;;;;;;5091229;28;20014;-68
2023/03/31 16:59:51;;;;;;;;;;;;;;;;;;5111166;27;20380;-69
2023/03/31 17:02:52;;;;;;;;;;;;;;;;;;5111102;27;20295;-69
2023/03/31 17:05:19;;;;;;;;;;;;;;;;;;5111640;28;20411;-68
2023/03/31 17:09:22;;;;;;;;;;;;;;;;;;5092107;27;19917;-68
2023/03/31 17:13:45;;;;;;;;;;;;;;;;;;5132133;27;20014;-69
2023/03/31 17:18:44;;;;;;;;;;;;;;;;;;5112375;27;19916;-66
2023/03/31 17:21:10;;;;;;;;;;;;;;;;;;5111232;28;19916;-68
2023/03/31 17:23:36;;;;;;;;;;;;;;;;;;5111552;28;19908;-69
2023/03/31 17:26:02;;;;;;;;;;;;;;;;;;5111654;28;19961;-68
2023/03/31 17:30:51;;;;;;;;;;;;;;;;;;5132499;27;19915;-69
2023/03/31 17:35:36;;;;;;;;;;;;;;;;;;5090971;27;19923;-68
2023/03/31 17:38:03;;;;;;;;;;;;;;;;;;5091284;28;19913;-69
2023/03/31 17:40:54;;;;;;;;;;;;;;;;;;5111964;27;19923;-69
2023/03/31 17:44:06;;;;;;;;;;;;;;;;;;5111952;27;20281;-69
2023/03/31 17:49:20;;;;;;;;;;;;;;;;;;5090857;27;19916;-67
2023/03/31 17:51:45;;;;;;;;;;;;;;;;;;5091162;28;19935;-66
2023/03/31 17:54:11;;;;;;;;;;;;;;;;;;5091158;28;20356;-68
2023/03/31 17:58:21;;;;;;;;;;;;;;;;;;5091372;27;19917;-69
2023/03/31 18:00:47;;;;;;;;;;;;;;;;;;5091420;28;19913;-71
2023/03/31 18:03:13;;;;;;;;;;;;;;;;;;5090862;28;19908;-69
2023/03/31 18:06:59;;;;;;;;;;;;;;;;;;5112401;27;19922;-68